^^
Your Local Weather - Clay, NY Station Historical Data
Daily Summary for July 29, 2017 Units:  English    Metric   Both
« Previous Day
Next Day »
Daily Weekly Monthly Yearly Custom
  High: Low: Average:
Temperature: 76.2 °F 51.4 °F 63.7 °F
Dew Point: 58.7 °F 48.1 °F 51.9 °F
Humidity: 94% 40% 69%
Wind Speed: 5.0mph 0.0mph 1.3mph
Wind Gust: 11.0mph - -
Wind- - WSW
Pressure: 29.95 in 29.87 in -
Precipitation: 0.00 in    
Historical Graphs
 
 
Tabular Data for July 29, 2017
Time Temperature Dew Point Pressure Wind Wind Speed Wind Gust Humidity Rainfall Rate (Hourly) solar
00:00 54.8 °F 51.3 °F 29.89 in Calm     88% 0.00 in 0 W/m2
00:06 54.8 °F 51.3 °F 29.89 in Calm     88% 0.00 in 0 W/m2
00:12 54.7 °F 51.2 °F 29.89 in Calm     88% 0.00 in 0 W/m2
00:18 54.6 °F 51.1 °F 29.89 in Calm     88% 0.00 in 0 W/m2
00:24 54.5 °F 51.0 °F 29.89 in Calm     88% 0.00 in 0 W/m2
00:30 54.6 °F 51.4 °F 29.89 in Calm     89% 0.00 in 0 W/m2
00:36 54.6 °F 51.4 °F 29.89 in Calm     89% 0.00 in 0 W/m2
00:42 54.4 °F 51.2 °F 29.89 in Calm     89% 0.00 in 0 W/m2
00:48 54.3 °F 51.1 °F 29.90 in Calm     89% 0.00 in 0 W/m2
00:54 54.1 °F 50.9 °F 29.90 in Calm     89% 0.00 in 0 W/m2
01:00 54.2 °F 51.0 °F 29.90 in Calm     89% 0.00 in 0 W/m2
01:06 54.4 °F 51.5 °F 29.90 in Calm     90% 0.00 in 0 W/m2
01:12 54.4 °F 51.5 °F 29.91 in Calm     90% 0.00 in 0 W/m2
01:18 54.3 °F 51.4 °F 29.90 in Calm     90% 0.00 in 0 W/m2
01:24 54.3 °F 51.4 °F 29.90 in Calm     90% 0.00 in 0 W/m2
01:30 54.2 °F 51.3 °F 29.91 in Calm     90% 0.00 in 0 W/m2
01:36 54.1 °F 51.2 °F 29.91 in Calm     90% 0.00 in 0 W/m2
01:42 54.0 °F 51.1 °F 29.90 in Calm     90% 0.00 in 0 W/m2
01:48 53.9 °F 51.0 °F 29.90 in Calm     90% 0.00 in 0 W/m2
01:54 53.7 °F 50.8 °F 29.90 in Calm     90% 0.00 in 0 W/m2
02:00 53.6 °F 50.7 °F 29.89 in Calm     90% 0.00 in 0 W/m2
02:06 53.6 °F 51.0 °F 29.89 in Calm     91% 0.00 in 0 W/m2
02:12 53.5 °F 50.9 °F 29.89 in Calm     91% 0.00 in 0 W/m2
02:24 53.4 °F 50.8 °F 29.89 in Calm     91% 0.00 in 0 W/m2
02:30 53.3 °F 50.7 °F 29.89 in Calm     91% 0.00 in 0 W/m2
02:36 53.3 °F 50.7 °F 29.89 in Calm     91% 0.00 in 0 W/m2
02:42 53.3 °F 50.7 °F 29.89 in Calm   2.0 mph 91% 0.00 in 0 W/m2
02:48 53.4 °F 50.8 °F 29.89 in Calm   2.0 mph 91% 0.00 in 0 W/m2
02:54 53.5 °F 50.9 °F 29.89 in Calm   2.0 mph 91% 0.00 in 0 W/m2
03:00 53.5 °F 50.9 °F 29.88 in North 1.0 mph 1.0 mph 91% 0.00 in 0 W/m2
03:06 53.7 °F 50.8 °F 29.88 in Calm   1.0 mph 90% 0.00 in 0 W/m2
03:12 53.8 °F 50.9 °F 29.88 in Calm     90% 0.00 in 0 W/m2
03:18 53.8 °F 50.9 °F 29.88 in North 1.0 mph 2.0 mph 90% 0.00 in 0 W/m2
03:24 53.7 °F 50.8 °F 29.87 in North 1.0 mph 1.0 mph 90% 0.00 in 0 W/m2
03:30 53.6 °F 50.7 °F 29.87 in Calm     90% 0.00 in 0 W/m2
03:36 53.5 °F 50.6 °F 29.87 in Calm   1.0 mph 90% 0.00 in 0 W/m2
03:42 53.4 °F 50.5 °F 29.87 in Calm     90% 0.00 in 0 W/m2
03:48 53.3 °F 50.4 °F 29.87 in Calm     90% 0.00 in 0 W/m2
03:54 53.2 °F 50.3 °F 29.87 in Calm     90% 0.00 in 0 W/m2
04:00 53.1 °F 50.2 °F 29.88 in Calm     90% 0.00 in 0 W/m2
04:06 53.1 °F 50.2 °F 29.88 in Calm     90% 0.00 in 0 W/m2
04:12 52.9 °F 50.0 °F 29.88 in Calm     90% 0.00 in 0 W/m2
04:20 52.8 °F 49.9 °F 29.89 in Calm     90% 0.00 in 0 W/m2
04:26 52.7 °F 49.8 °F 29.89 in Calm     90% 0.00 in 0 W/m2
04:32 52.6 °F 49.8 °F 29.89 in Calm     90% 0.00 in 0 W/m2
04:38 52.6 °F 50.0 °F 29.89 in Calm     91% 0.00 in 0 W/m2
04:44 52.5 °F 49.9 °F 29.89 in Calm     91% 0.00 in 0 W/m2
04:50 52.3 °F 49.8 °F 29.89 in Calm     91% 0.00 in 0 W/m2
04:56 52.3 °F 49.8 °F 29.89 in Calm     91% 0.00 in 0 W/m2
05:02 52.4 °F 49.8 °F 29.89 in Calm     91% 0.00 in 0 W/m2
05:08 52.3 °F 49.8 °F 29.89 in Calm     91% 0.00 in 0 W/m2
05:14 52.1 °F 49.8 °F 29.89 in Calm     92% 0.00 in 0 W/m2
05:20 52.0 °F 49.7 °F 29.89 in Calm     92% 0.00 in 0 W/m2
05:26 51.9 °F 49.4 °F 29.89 in Calm     91% 0.00 in 0 W/m2
05:32 51.9 °F 49.6 °F 29.89 in Calm     92% 0.00 in 0 W/m2
05:38 51.8 °F 49.5 °F 29.89 in Calm     92% 0.00 in 0 W/m2
05:44 51.7 °F 49.5 °F 29.90 in Calm     92% 0.00 in 0 W/m2
05:50 51.6 °F 49.4 °F 29.90 in Calm     92% 0.00 in 0 W/m2
05:56 51.6 °F 49.4 °F 29.89 in Calm     92% 0.00 in 0 W/m2
06:02 51.5 °F 49.3 °F 29.89 in Calm     92% 0.00 in 5 W/m2
06:08 51.5 °F 49.3 °F 29.90 in Calm     92% 0.00 in 7 W/m2
06:14 51.4 °F 49.2 °F 29.90 in Calm     92% 0.00 in 12 W/m2
06:20 51.4 °F 49.2 °F 29.90 in Calm     92% 0.00 in 16 W/m2
06:26 51.4 °F 49.2 °F 29.90 in Calm     92% 0.00 in 19 W/m2
06:32 51.4 °F 49.2 °F 29.90 in Calm     92% 0.00 in 21 W/m2
06:38 51.4 °F 49.4 °F 29.90 in Calm     93% 0.00 in 28 W/m2
06:44 51.4 °F 49.4 °F 29.90 in Calm     93% 0.00 in 37 W/m2
06:50 51.5 °F 49.5 °F 29.91 in Calm     93% 0.00 in 42 W/m2
06:56 51.7 °F 49.7 °F 29.92 in Calm     93% 0.00 in 47 W/m2
07:02 52.0 °F 50.0 °F 29.92 in Calm     93% 0.00 in 49 W/m2
07:08 52.2 °F 50.2 °F 29.92 in Calm     93% 0.00 in 53 W/m2
07:14 52.3 °F 50.3 °F 29.92 in Calm     93% 0.00 in 56 W/m2
07:20 52.6 °F 50.6 °F 29.92 in Calm     93% 0.00 in 86 W/m2
07:26 53.2 °F 51.2 °F 29.93 in Calm     93% 0.00 in 107 W/m2
07:32 53.8 °F 51.8 °F 29.93 in Calm     93% 0.00 in 116 W/m2
07:38 54.1 °F 52.4 °F 29.93 in Calm     94% 0.00 in 130 W/m2
07:44 54.3 °F 52.3 °F 29.93 in Calm     93% 0.00 in 172 W/m2
07:50 55.0 °F 53.0 °F 29.93 in Calm     93% 0.00 in 234 W/m2
07:56 55.9 °F 53.9 °F 29.93 in Calm     93% 0.00 in 272 W/m2
08:02 57.1 °F 54.8 °F 29.93 in Calm     92% 0.00 in 281 W/m2
08:08 58.3 °F 55.4 °F 29.93 in Calm   2.0 mph 90% 0.00 in 294 W/m2
08:14 58.7 °F 53.5 °F 29.93 in North 1.0 mph 3.0 mph 83% 0.00 in 313 W/m2
08:20 59.5 °F 54.3 °F 29.93 in North 1.0 mph 1.0 mph 83% 0.00 in 394 W/m2
08:26 60.5 °F 54.3 °F 29.93 in Calm   3.0 mph 80% 0.00 in 439 W/m2
08:32 61.5 °F 54.6 °F 29.93 in Calm     78% 0.00 in 457 W/m2
08:38 62.9 °F 55.6 °F 29.93 in Calm     77% 0.00 in 439 W/m2
08:44 63.9 °F 55.4 °F 29.93 in Calm     74% 0.00 in 476 W/m2
08:50 64.5 °F 54.9 °F 29.93 in Calm     71% 0.00 in 438 W/m2
08:56 64.9 °F 54.9 °F 29.93 in Calm   1.0 mph 70% 0.00 in 461 W/m2
09:02 65.4 °F 55.4 °F 29.93 in Calm     70% 0.00 in 487 W/m2
09:08 66.0 °F 55.5 °F 29.93 in Calm   2.0 mph 69% 0.00 in 515 W/m2
09:14 66.1 °F 55.2 °F 29.93 in ENE 1.0 mph 2.0 mph 68% 0.00 in 508 W/m2
09:20 66.3 °F 54.2 °F 29.93 in ENE 1.0 mph 1.0 mph 65% 0.00 in 508 W/m2
09:26 66.8 °F 54.7 °F 29.93 in NE 1.0 mph 2.0 mph 65% 0.00 in 571 W/m2
09:32 67.3 °F 54.7 °F 29.93 in North 1.0 mph 3.0 mph 64% 0.00 in 610 W/m2
09:38 67.5 °F 54.9 °F 29.93 in North 1.0 mph 3.0 mph 64% 0.00 in 624 W/m2
09:44 68.1 °F 52.8 °F 29.93 in North 2.0 mph 2.0 mph 58% 0.00 in 594 W/m2
09:50 68.5 °F 52.2 °F 29.93 in North 2.0 mph 2.0 mph 56% 0.00 in 598 W/m2
09:56 68.7 °F 51.9 °F 29.93 in NE 2.0 mph 2.0 mph 55% 0.00 in 577 W/m2
10:02 68.8 °F 52.0 °F 29.93 in NE 1.0 mph 1.0 mph 55% 0.00 in 601 W/m2
10:08 68.8 °F 52.0 °F 29.93 in North 1.0 mph 4.0 mph 55% 0.00 in 621 W/m2
10:14 69.3 °F 53.4 °F 29.93 in North 1.0 mph 1.0 mph 57% 0.00 in 573 W/m2
10:20 69.6 °F 54.2 °F 29.93 in North 1.0 mph 2.0 mph 58% 0.00 in 633 W/m2
10:26 69.8 °F 53.9 °F 29.93 in North 2.0 mph 4.0 mph 57% 0.00 in 640 W/m2
10:32 70.0 °F 53.6 °F 29.93 in NNE 2.0 mph 3.0 mph 56% 0.00 in 640 W/m2
10:38 70.2 °F 53.8 °F 29.93 in NNW 2.0 mph 4.0 mph 56% 0.00 in 686 W/m2
10:44 70.2 °F 54.2 °F 29.93 in NNE 1.0 mph 2.0 mph 57% 0.00 in 747 W/m2
10:50 70.3 °F 53.4 °F 29.93 in ENE 1.0 mph 1.0 mph 55% 0.00 in 758 W/m2
10:56 71.2 °F 53.7 °F 29.93 in ENE 1.0 mph 3.0 mph 54% 0.00 in 814 W/m2
11:02 72.2 °F 54.1 °F 29.93 in WNW 1.0 mph 5.0 mph 53% 0.00 in 846 W/m2
11:08 71.8 °F 52.7 °F 29.93 in NNE 3.0 mph 6.0 mph 51% 0.00 in 849 W/m2
11:20 73.0 °F 57.3 °F 29.93 in NW 1.0 mph 1.0 mph 58% 0.00 in 854 W/m2
11:26 73.3 °F 54.6 °F 29.93 in NNW 1.0 mph 3.0 mph 52% 0.00 in 840 W/m2
11:32 73.7 °F 56.5 °F 29.92 in Calm   1.0 mph 55% 0.00 in 856 W/m2
11:50 73.5 °F 54.8 °F 29.92 in WNW 1.0 mph 1.0 mph 52% 0.00 in 918 W/m2
11:56 73.5 °F 52.6 °F 29.92 in NE 2.0 mph 4.0 mph 48% 0.00 in 912 W/m2
12:04 74.7 °F 53.7 °F 29.92 in NW 2.0 mph 3.0 mph 48% 0.00 in 933 W/m2
12:10 74.2 °F 54.4 °F 29.92 in NE 3.0 mph 3.0 mph 50% 0.00 in 944 W/m2
12:16 74.6 °F 51.9 °F 29.92 in North 2.0 mph 3.0 mph 45% 0.00 in 1009 W/m2
12:22 74.4 °F 51.1 °F 29.92 in NW 2.0 mph 2.0 mph 44% 0.00 in 954 W/m2
12:28 74.1 °F 53.7 °F 29.91 in NE 1.0 mph 2.0 mph 49% 0.00 in 1035 W/m2
12:34 73.6 °F 52.1 °F 29.91 in East 3.0 mph 6.0 mph 47% 0.00 in 791 W/m2
12:40 74.4 °F 53.4 °F 29.91 in NNE 2.0 mph 2.0 mph 48% 0.00 in 244 W/m2
12:46 75.3 °F 54.3 °F 29.91 in NNE 1.0 mph 2.0 mph 48% 0.00 in 580 W/m2
12:52 75.3 °F 52.5 °F 29.90 in NNE 2.0 mph 5.0 mph 45% 0.00 in 1051 W/m2
12:58 75.4 °F 53.8 °F 29.90 in North 3.0 mph 5.0 mph 47% 0.00 in 214 W/m2
13:04 74.9 °F 52.7 °F 29.90 in NW 2.0 mph 3.0 mph 46% 0.00 in 979 W/m2
13:06 74.8 °F 53.8 °F 29.90 in WNW 3.0 mph 3.0 mph 48% 0.00 in 976 W/m2
13:12 75.2 °F 52.4 °F 29.90 in NNW 3.0 mph 3.0 mph 45% 0.00 in 954 W/m2
13:18 75.7 °F 54.6 °F 29.90 in North 3.0 mph 3.0 mph 48% 0.00 in 965 W/m2
13:24 75.4 °F 57.1 °F 29.90 in WNW 3.0 mph 5.0 mph 53% 0.00 in 1000 W/m2
13:30 75.5 °F 55.6 °F 29.90 in NW 2.0 mph 6.0 mph 50% 0.00 in 1000 W/m2
13:36 75.7 °F 57.4 °F 29.90 in NW 2.0 mph 6.0 mph 53% 0.00 in 946 W/m2
13:42 75.1 °F 55.7 °F 29.90 in North 3.0 mph 9.0 mph 51% 0.00 in 930 W/m2
13:48 75.5 °F 57.2 °F 29.90 in NNW 3.0 mph 9.0 mph 53% 0.00 in 942 W/m2
13:54 75.9 °F 57.0 °F 29.90 in NNW 3.0 mph 5.0 mph 52% 0.00 in 942 W/m2
14:00 75.5 °F 57.7 °F 29.89 in NNW 3.0 mph 3.0 mph 54% 0.00 in 905 W/m2
14:06 75.1 °F 57.8 °F 29.89 in North 3.0 mph 6.0 mph 55% 0.00 in 888 W/m2
14:12 75.7 °F 55.2 °F 29.89 in NW 3.0 mph 4.0 mph 49% 0.00 in 888 W/m2
14:20 75.1 °F 56.3 °F 29.89 in NW 4.0 mph 6.0 mph 52% 0.00 in 884 W/m2
14:26 75.1 °F 57.3 °F 29.89 in NW 4.0 mph 6.0 mph 54% 0.00 in 896 W/m2
14:32 76.0 °F 58.7 °F 29.89 in NNW 3.0 mph 3.0 mph 55% 0.00 in 896 W/m2
14:38 76.1 °F 55.5 °F 29.89 in North 3.0 mph 4.0 mph 49% 0.00 in 900 W/m2
14:44 75.8 °F 55.3 °F 29.89 in NNE 4.0 mph 8.0 mph 49% 0.00 in 891 W/m2
14:50 75.6 °F 55.6 °F 29.89 in NW 4.0 mph 4.0 mph 50% 0.00 in 868 W/m2
14:56 75.9 °F 56.5 °F 29.89 in North 4.0 mph 7.0 mph 51% 0.00 in 858 W/m2
15:02 75.7 °F 57.4 °F 29.89 in NNW 4.0 mph 4.0 mph 53% 0.00 in 860 W/m2
15:08 76.0 °F 56.6 °F 29.89 in North 4.0 mph 4.0 mph 51% 0.00 in 847 W/m2
15:20 76.1 °F 54.4 °F 29.89 in North 4.0 mph 5.0 mph 47% 0.00 in 823 W/m2
15:26 76.2 °F 56.7 °F 29.90 in West 3.0 mph 5.0 mph 51% 0.00 in 807 W/m2
15:32 75.8 °F 51.7 °F 29.90 in NW 4.0 mph 4.0 mph 43% 0.00 in 788 W/m2
15:38 75.9 °F 53.6 °F 29.89 in NW 3.0 mph 5.0 mph 46% 0.00 in 705 W/m2
15:44 75.7 °F 53.4 °F 29.89 in North 4.0 mph 6.0 mph 46% 0.00 in 745 W/m2
15:50 76.0 °F 53.7 °F 29.89 in NW 4.0 mph 6.0 mph 46% 0.00 in 754 W/m2
15:56 76.1 °F 52.0 °F 29.89 in North 4.0 mph 6.0 mph 43% 0.00 in 761 W/m2
16:02 75.5 °F 52.1 °F 29.89 in NNW 5.0 mph 6.0 mph 44% 0.00 in 738 W/m2
16:08 75.8 °F 53.5 °F 29.89 in NW 5.0 mph 6.0 mph 46% 0.00 in 708 W/m2
16:14 75.4 °F 51.3 °F 29.89 in North 4.0 mph 8.0 mph 43% 0.00 in 682 W/m2
16:20 75.0 °F 50.3 °F 29.89 in NNW 5.0 mph 5.0 mph 42% 0.00 in 664 W/m2
16:26 75.1 °F 51.7 °F 29.89 in NNE 5.0 mph 6.0 mph 44% 0.00 in 661 W/m2
16:32 75.2 °F 50.5 °F 29.89 in NNE 5.0 mph 7.0 mph 42% 0.00 in 670 W/m2
16:38 75.1 °F 50.4 °F 29.90 in WNW 5.0 mph 7.0 mph 42% 0.00 in 656 W/m2
16:44 75.1 °F 51.7 °F 29.90 in NNW 4.0 mph 5.0 mph 44% 0.00 in 640 W/m2
16:50 74.7 °F 49.4 °F 29.90 in NW 4.0 mph 5.0 mph 41% 0.00 in 622 W/m2
16:56 74.8 °F 50.8 °F 29.90 in North 3.0 mph 5.0 mph 43% 0.00 in 510 W/m2
17:02 74.5 °F 51.2 °F 29.90 in North 4.0 mph 6.0 mph 44% 0.00 in 84 W/m2
17:08 74.2 °F 48.3 °F 29.90 in NW 4.0 mph 6.0 mph 40% 0.00 in 54 W/m2
17:14 73.9 °F 49.4 °F 29.90 in NW 4.0 mph 6.0 mph 42% 0.00 in 54 W/m2
17:20 73.6 °F 49.1 °F 29.90 in NNW 5.0 mph 5.0 mph 42% 0.00 in 49 W/m2
17:26 73.6 °F 50.3 °F 29.90 in NW 4.0 mph 5.0 mph 44% 0.00 in 47 W/m2
17:32 73.5 °F 48.4 °F 29.90 in NW 4.0 mph 8.0 mph 41% 0.00 in 44 W/m2
17:38 73.5 °F 50.2 °F 29.90 in NNW 4.0 mph 8.0 mph 44% 0.00 in 42 W/m2
17:44 73.4 °F 49.5 °F 29.90 in North 4.0 mph 4.0 mph 43% 0.00 in 44 W/m2
17:50 73.2 °F 48.1 °F 29.90 in NW 4.0 mph 4.0 mph 41% 0.00 in 39 W/m2
17:56 73.1 °F 49.3 °F 29.90 in NW 4.0 mph 4.0 mph 43% 0.00 in 39 W/m2
18:02 73.0 °F 48.5 °F 29.91 in NW 5.0 mph 11.0 mph 42% 0.00 in 37 W/m2
18:14 72.8 °F 49.0 °F 29.90 in NW 4.0 mph 5.0 mph 43% 0.00 in 35 W/m2
18:20 72.8 °F 49.0 °F 29.90 in NNE 3.0 mph 4.0 mph 43% 0.00 in 35 W/m2
18:26 72.7 °F 50.1 °F 29.91 in NW 3.0 mph 4.0 mph 45% 0.00 in 33 W/m2
18:32 72.6 °F 48.8 °F 29.91 in WNW 3.0 mph 4.0 mph 43% 0.00 in 33 W/m2
18:38 72.3 °F 49.2 °F 29.91 in NW 3.0 mph 4.0 mph 44% 0.00 in 32 W/m2
18:44 72.2 °F 49.1 °F 29.91 in NNW 4.0 mph 5.0 mph 44% 0.00 in 32 W/m2
18:50 72.0 °F 48.3 °F 29.92 in NW 3.0 mph 3.0 mph 43% 0.00 in 28 W/m2
18:56 71.9 °F 48.8 °F 29.92 in NNW 3.0 mph 6.0 mph 44% 0.00 in 28 W/m2
19:02 71.8 °F 49.3 °F 29.92 in North 3.0 mph 5.0 mph 45% 0.00 in 26 W/m2
19:08 71.5 °F 49.0 °F 29.92 in North 3.0 mph 5.0 mph 45% 0.00 in 26 W/m2
19:14 71.4 °F 49.5 °F 29.91 in NNW 3.0 mph 4.0 mph 46% 0.00 in 25 W/m2
19:20 71.2 °F 49.4 °F 29.91 in WNW 3.0 mph 3.0 mph 46% 0.00 in 23 W/m2
19:26 71.0 °F 49.2 °F 29.92 in NNW 3.0 mph 3.0 mph 46% 0.00 in 21 W/m2
19:32 70.7 °F 50.0 °F 29.92 in North 2.0 mph 3.0 mph 48% 0.00 in 23 W/m2
19:38 70.4 °F 49.8 °F 29.92 in North 1.0 mph 3.0 mph 48% 0.00 in 19 W/m2
19:44 70.1 °F 50.0 °F 29.92 in North 1.0 mph 1.0 mph 49% 0.00 in 18 W/m2
19:50 69.7 °F 50.2 °F 29.92 in NW 1.0 mph 2.0 mph 50% 0.00 in 16 W/m2
19:56 69.4 °F 49.9 °F 29.92 in NW 1.0 mph 2.0 mph 50% 0.00 in 14 W/m2
20:02 68.7 °F 50.9 °F 29.92 in Calm     53% 0.00 in 12 W/m2
20:08 68.1 °F 51.8 °F 29.92 in Calm     56% 0.00 in 11 W/m2
20:14 67.4 °F 50.7 °F 29.92 in Calm     55% 0.00 in 9 W/m2
20:20 66.8 °F 51.1 °F 29.92 in Calm     57% 0.00 in 7 W/m2
20:26 66.1 °F 51.4 °F 29.92 in Calm     59% 0.00 in 5 W/m2
20:32 65.5 °F 50.8 °F 29.92 in Calm     59% 0.00 in 0 W/m2
20:38 64.9 °F 51.6 °F 29.93 in Calm     62% 0.00 in 0 W/m2
20:44 64.3 °F 51.0 °F 29.93 in Calm     62% 0.00 in 0 W/m2
20:50 63.8 °F 51.0 °F 29.93 in Calm     63% 0.00 in 0 W/m2
20:56 63.3 °F 50.9 °F 29.93 in Calm     64% 0.00 in 0 W/m2
21:02 62.8 °F 51.3 °F 29.93 in Calm     66% 0.00 in 0 W/m2
21:08 62.3 °F 51.2 °F 29.93 in Calm     67% 0.00 in 0 W/m2
21:14 62.0 °F 51.3 °F 29.93 in Calm     68% 0.00 in 0 W/m2
21:20 61.6 °F 51.3 °F 29.93 in Calm     69% 0.00 in 0 W/m2
21:26 61.1 °F 50.8 °F 29.93 in Calm     69% 0.00 in 0 W/m2
21:32 60.8 °F 51.3 °F 29.93 in Calm     71% 0.00 in 0 W/m2
21:38 60.4 °F 51.0 °F 29.94 in Calm     71% 0.00 in 0 W/m2
21:44 60.2 °F 51.1 °F 29.94 in Calm     72% 0.00 in 0 W/m2
21:50 59.9 °F 51.2 °F 29.95 in Calm     73% 0.00 in 0 W/m2
21:56 59.7 °F 51.4 °F 29.95 in Calm     74% 0.00 in 0 W/m2
22:02 59.5 °F 51.6 °F 29.95 in Calm     75% 0.00 in 0 W/m2
22:08 59.3 °F 51.7 °F 29.95 in Calm     76% 0.00 in 0 W/m2
22:14 58.9 °F 51.3 °F 29.95 in Calm     76% 0.00 in 0 W/m2
22:20 58.7 °F 51.2 °F 29.95 in Calm     76% 0.00 in 0 W/m2
22:26 58.5 °F 52.0 °F 29.95 in Calm     79% 0.00 in 0 W/m2
22:32 58.4 °F 51.9 °F 29.95 in Calm     79% 0.00 in 0 W/m2
22:38 58.1 °F 51.3 °F 29.95 in Calm     78% 0.00 in 0 W/m2
22:44 57.9 °F 51.8 °F 29.95 in Calm     80% 0.00 in 0 W/m2
22:50 57.7 °F 51.9 °F 29.95 in Calm     81% 0.00 in 0 W/m2
22:56 57.5 °F 51.7 °F 29.95 in Calm     81% 0.00 in 0 W/m2
23:02 57.2 °F 51.8 °F 29.95 in Calm     82% 0.00 in 0 W/m2
23:08 56.9 °F 51.5 °F 29.95 in Calm     82% 0.00 in 0 W/m2
23:14 56.7 °F 51.3 °F 29.95 in Calm     82% 0.00 in 0 W/m2
23:20 56.5 °F 51.4 °F 29.95 in Calm     83% 0.00 in 0 W/m2
23:26 56.3 °F 51.2 °F 29.95 in Calm     83% 0.00 in 0 W/m2
23:32 56.2 °F 51.4 °F 29.95 in Calm     84% 0.00 in 0 W/m2
23:38 56.1 °F 51.3 °F 29.95 in Calm     84% 0.00 in 0 W/m2
23:44 55.9 °F 51.5 °F 29.95 in Calm     85% 0.00 in 0 W/m2
23:50 55.7 °F 51.3 °F 29.95 in Calm     85% 0.00 in 0 W/m2
23:56 55.6 °F 51.2 °F 29.95 in Calm     85% 0.00 in 0 W/m2
Country Meadow, Clay, NY, USA
Compliments of Weather Underground - 2 mb